Washington, DC

11:33 AM EST on December 10, 2016 (GMT -0500)
Eckington Pl, NE | | Change Station

Elev 90 ft 38.91 °N, 77.01 °W | Updated 4 minutes ago

Clear
Clear
35.3 °F
Feels Like 28 °F
N
9.0
Wind Variable Wind from WSW
Gusts 14.0 mph

Today
High -- | Low -- °F
--% Chance of Precip.
Yesterday
High -- | Low -- °F
Precip. -- in
Pressure 30.51 in
Visibility 10.0 miles
Clouds Few 3500 ft
Few 15000 ft
Windchill 28 °F
Dew Point 14 °F
Humidity 42%
Rainfall Not available.
Snow Depth Not available.
7:16 AM 4:46 PM
Waxing Gibbous, 84% visible
METAR KDCA 101552Z 33012G19KT 10SM FEW035 FEW150 02/M10 A3051 RMK AO2 SLP330 T00221100
Pressure 30.51 in
Visibility 10.0 miles
Clouds Few 3500 ft
Few 15000 ft
Windchill 28 °F
Dew Point 14 °F
Humidity 42%
Rainfall Not available.
Snow Depth Not available.
7:16 AM 4:46 PM
Waxing Gibbous, 84% visible
METAR KDCA 101552Z 33012G19KT 10SM FEW035 FEW150 02/M10 A3051 RMK AO2 SLP330 T00221100

10-Day Weather Forecast

Almanac

Astronomy

Dec. 10, 2016 Rise Set
Actual Time
Civil Twilight
Nautical Twilight
Astronomical Twilight
Moon
Length of Visible Light
Length of Day
Tomorrow will be .
, % of the Moon is Illuminated

Today's Extremes

State Highs State Lows

Community

WunderPhotos

Upload Photos

1,956,569 photos uploaded!

WunderBlog® & News

Nearby

Air Quality

  Air Quality AQ Index Pollutant
Not available.

Snow Depth

Station Depth Elevation

Earthquake Activity

City Distance Mag. Time & Date
Minimum magnitude displayed is 2.5.

Coastal Water Temperatures

Place Temperature

Stations

Nearby Weather Stations

Station Location Temp. Windchill Dew Point Humidity Wind Precip. Elev Updated Type
                   

Watches & Warnings

There are currently no watches in effect.